Time;durP1;ratioP1;P1;durP2;ratioP2;P2;SDS_P1;SDS_P2;PMS_P1;PMS_P2;Temp;Humidity;BMP_temperature;BMP_pressure;BME280_temperature;BME280_humidity;BME280_pressure;Samples;Min_cycle;Max_cycle;Signal;HPM_P1;HPM_P2
2023/05/09 00:00:23;;;;;;;12.18;7.57;;;;;;;;;;5051779;28;20039;-95
2023/05/09 00:02:50;;;;;;;11.65;7.97;;;;;;;;;;5055606;28;20076;-93
2023/05/09 00:05:16;;;;;;;12.88;8.25;;;;;;;;;;5056371;28;20564;-90
2023/05/09 00:07:42;;;;;;;10.80;8.23;;;;;;;;;;5118187;27;20029;-89
2023/05/09 00:10:08;;;;;;;13.40;8.07;;;;;;;;;;5118317;27;20058;-90
2023/05/09 00:12:34;;;;;;;11.80;8.50;;;;;;;;;;5117758;27;20030;-92
2023/05/09 00:15:00;;;;;;;12.68;8.75;;;;;;;;;;5109294;28;20134;-92
2023/05/09 00:17:35;;;;;;;11.98;8.32;;;;;;;;;;5114212;28;20537;-93
2023/05/09 00:20:04;;;;;;;11.63;7.75;;;;;;;;;;5111516;28;20027;-91
2023/05/09 00:22:30;;;;;;;10.77;8.13;;;;;;;;;;5114640;28;20130;-90
2023/05/09 00:24:56;;;;;;;10.52;7.60;;;;;;;;;;5113180;28;20051;-93
2023/05/09 00:27:25;;;;;;;10.02;6.82;;;;;;;;;;5114600;28;20486;-93
2023/05/09 00:29:51;;;;;;;8.13;5.75;;;;;;;;;;5116997;27;20027;-90
2023/05/09 00:32:17;;;;;;;8.57;6.13;;;;;;;;;;5117533;27;20027;-91
2023/05/09 00:34:45;;;;;;;13.20;6.57;;;;;;;;;;5117679;27;20102;-92
2023/05/09 00:37:35;;;;;;;8.77;6.43;;;;;;;;;;5117232;27;20027;-90
2023/05/09 00:40:10;;;;;;;10.07;6.63;;;;;;;;;;5117370;27;20018;-96
2023/05/09 00:42:42;;;;;;;9.40;6.93;;;;;;;;;;5108512;28;20032;-92
2023/05/09 00:45:11;;;;;;;10.68;7.50;;;;;;;;;;5113583;28;20468;-90
2023/05/09 00:47:38;;;;;;;10.38;6.90;;;;;;;;;;5113719;28;20020;-90
2023/05/09 00:50:04;;;;;;;11.75;7.30;;;;;;;;;;5113868;28;20543;-91
2023/05/09 00:52:32;;;;;;;9.43;7.15;;;;;;;;;;5104420;28;20039;-91
2023/05/09 00:55:09;;;;;;;16.15;7.50;;;;;;;;;;5113532;28;20027;-94
2023/05/09 00:57:41;;;;;;;7.55;6.10;;;;;;;;;;5113424;28;20031;-94
2023/05/09 01:00:11;;;;;;;10.07;7.13;;;;;;;;;;5111974;27;20099;-90
2023/05/09 01:02:38;;;;;;;10.55;7.47;;;;;;;;;;5117357;28;20027;-91
2023/05/09 01:05:05;;;;;;;11.63;6.72;;;;;;;;;;5117083;27;20102;-90
2023/05/09 01:07:46;;;;;;;12.18;7.10;;;;;;;;;;5117328;28;20027;-91
2023/05/09 01:10:15;;;;;;;10.00;7.28;;;;;;;;;;5117334;28;20158;-91
2023/05/09 01:12:58;;;;;;;10.32;5.80;;;;;;;;;;5117277;28;20026;-90
2023/05/09 01:15:27;;;;;;;10.38;6.05;;;;;;;;;;5128962;27;20137;-90
2023/05/09 01:17:54;;;;;;;10.50;6.85;;;;;;;;;;5116727;28;20100;-91
2023/05/09 01:20:38;;;;;;;8.77;6.45;;;;;;;;;;5116830;28;20028;-90
2023/05/09 01:23:05;;;;;;;10.30;5.90;;;;;;;;;;5117809;28;20131;-91
2023/05/09 01:25:52;;;;;;;9.55;6.25;;;;;;;;;;5122287;27;20050;-90
2023/05/09 01:28:36;;;;;;;7.47;5.63;;;;;;;;;;5137585;27;20023;-91
2023/05/09 01:31:03;;;;;;;9.52;6.15;;;;;;;;;;5137312;27;20048;-91
2023/05/09 01:33:33;;;;;;;8.63;5.32;;;;;;;;;;5137424;27;20075;-91
2023/05/09 01:36:04;;;;;;;10.02;5.57;;;;;;;;;;5138154;27;20141;-91
2023/05/09 01:38:31;;;;;;;7.22;5.45;;;;;;;;;;5141294;27;20035;-91
2023/05/09 01:40:58;;;;;;;9.45;5.85;;;;;;;;;;5138473;27;20478;-90
2023/05/09 01:43:27;;;;;;;10.40;6.30;;;;;;;;;;5117224;28;20040;-91
2023/05/09 01:45:53;;;;;;;7.82;5.70;;;;;;;;;;5120600;27;20061;-91
2023/05/09 01:48:20;;;;;;;7.10;5.47;;;;;;;;;;5120671;27;20113;-91
2023/05/09 01:50:47;;;;;;;7.95;5.68;;;;;;;;;;5121989;27;20458;-91
2023/05/09 01:53:14;;;;;;;6.95;5.25;;;;;;;;;;5141066;27;20058;-90
2023/05/09 01:55:40;;;;;;;11.20;5.95;;;;;;;;;;5140978;27;20050;-91
2023/05/09 01:58:07;;;;;;;7.35;5.32;;;;;;;;;;5140926;27;20076;-92
2023/05/09 02:00:34;;;;;;;8.52;5.63;;;;;;;;;;5141189;27;20023;-91
2023/05/09 02:03:01;;;;;;;8.73;7.10;;;;;;;;;;5141453;27;20099;-90
2023/05/09 02:05:28;;;;;;;7.05;5.57;;;;;;;;;;5141523;27;20153;-90
2023/05/09 02:08:00;;;;;;;7.88;5.97;;;;;;;;;;5140730;27;20027;-92
2023/05/09 02:10:27;;;;;;;7.28;5.57;;;;;;;;;;5125048;27;20042;-91
2023/05/09 02:12:54;;;;;;;7.57;5.45;;;;;;;;;;5140897;27;20021;-91
2023/05/09 02:15:21;;;;;;;7.72;5.75;;;;;;;;;;5136913;27;20051;-91
2023/05/09 02:17:47;;;;;;;7.88;5.63;;;;;;;;;;5136858;27;20042;-91
2023/05/09 02:20:16;;;;;;;6.82;5.43;;;;;;;;;;5137050;27;20072;-90
2023/05/09 02:22:49;;;;;;;8.18;5.70;;;;;;;;;;5137292;27;20061;-94
2023/05/09 02:25:15;;;;;;;8.88;5.72;;;;;;;;;;5137028;27;20023;-90
2023/05/09 02:27:43;;;;;;;7.22;5.22;;;;;;;;;;5137183;27;20087;-91
2023/05/09 02:30:12;;;;;;;7.57;5.65;;;;;;;;;;5130748;27;20118;-90
2023/05/09 02:32:39;;;;;;;7.30;5.13;;;;;;;;;;5117491;27;20079;-91
2023/05/09 02:35:08;;;;;;;7.28;5.32;;;;;;;;;;5136960;27;20049;-90
2023/05/09 02:37:35;;;;;;;9.40;5.85;;;;;;;;;;5137080;27;20484;-93
2023/05/09 02:40:01;;;;;;;8.50;5.82;;;;;;;;;;5099375;28;20069;-91
2023/05/09 02:42:29;;;;;;;9.13;5.50;;;;;;;;;;5099272;28;20464;-92
2023/05/09 02:44:55;;;;;;;7.25;5.40;;;;;;;;;;5099340;28;20033;-91
2023/05/09 02:47:27;;;;;;;8.07;5.85;;;;;;;;;;5098150;28;20031;-95
2023/05/09 02:49:53;;;;;;;7.93;5.80;;;;;;;;;;5099058;28;20016;-91
2023/05/09 02:52:25;;;;;;;8.50;5.80;;;;;;;;;;5099607;28;20032;-95
2023/05/09 02:54:51;;;;;;;11.45;6.32;;;;;;;;;;5098992;28;20464;-90
2023/05/09 02:57:17;;;;;;;8.13;5.93;;;;;;;;;;5136123;27;20066;-94
2023/05/09 02:59:43;;;;;;;10.98;5.82;;;;;;;;;;5136160;27;20123;-92
2023/05/09 03:02:09;;;;;;;9.70;5.70;;;;;;;;;;5136409;27;20030;-92
2023/05/09 03:04:36;;;;;;;8.80;5.93;;;;;;;;;;5136614;27;20031;-92
2023/05/09 03:07:02;;;;;;;9.07;5.32;;;;;;;;;;5137036;27;20019;-92
2023/05/09 03:09:28;;;;;;;9.02;6.05;;;;;;;;;;5143385;27;20387;-94
2023/05/09 03:12:01;;;;;;;10.05;6.57;;;;;;;;;;5124654;27;20028;-95
2023/05/09 03:14:27;;;;;;;8.87;5.93;;;;;;;;;;5112846;27;20039;-91
2023/05/09 03:16:54;;;;;;;9.80;6.40;;;;;;;;;;5119220;27;20269;-94
2023/05/09 03:19:23;;;;;;;9.48;6.03;;;;;;;;;;5109831;28;20146;-94
2023/05/09 03:21:49;;;;;;;10.30;6.30;;;;;;;;;;5118793;27;20027;-94
2023/05/09 03:24:15;;;;;;;10.50;6.75;;;;;;;;;;5118886;27;20471;-90
2023/05/09 03:26:48;;;;;;;9.70;6.63;;;;;;;;;;5118446;27;20027;-95
2023/05/09 03:29:14;;;;;;;9.75;6.20;;;;;;;;;;5118560;27;20447;-92
2023/05/09 03:31:40;;;;;;;10.20;6.35;;;;;;;;;;5118401;27;20020;-92
2023/05/09 03:34:11;;;;;;;10.20;6.35;;;;;;;;;;5114761;28;20044;-92
2023/05/09 03:36:37;;;;;;;8.52;6.22;;;;;;;;;;5116178;27;20015;-91
2023/05/09 03:39:14;;;;;;;10.30;6.57;;;;;;;;;;5118619;27;20035;-95
2023/05/09 03:41:41;;;;;;;9.57;6.75;;;;;;;;;;5118443;27;20030;-92
2023/05/09 03:44:07;;;;;;;9.15;6.18;;;;;;;;;;5118303;27;20053;-91
2023/05/09 03:46:34;;;;;;;10.85;7.30;;;;;;;;;;5115624;27;20102;-93
2023/05/09 03:49:00;;;;;;;9.68;6.05;;;;;;;;;;5118172;27;20038;-91
2023/05/09 03:51:26;;;;;;;9.85;6.32;;;;;;;;;;5118551;27;20051;-92
2023/05/09 03:53:52;;;;;;;10.38;6.03;;;;;;;;;;5118073;27;20027;-92
2023/05/09 03:56:18;;;;;;;8.50;5.72;;;;;;;;;;5117980;27;20035;-92
2023/05/09 03:58:48;;;;;;;9.18;6.00;;;;;;;;;;5116347;27;20085;-94
2023/05/09 04:01:14;;;;;;;10.30;6.63;;;;;;;;;;5112791;27;20066;-91
2023/05/09 04:03:41;;;;;;;9.10;6.00;;;;;;;;;;5117841;27;20114;-91
2023/05/09 04:09:22;;;;;;;8.82;5.65;;;;;;;;;;5130079;27;20122;-94
2023/05/09 04:11:48;;;;;;;7.43;5.53;;;;;;;;;;5118363;27;20031;-91
2023/05/09 04:14:14;;;;;;;6.97;5.30;;;;;;;;;;5114444;28;20051;-94
2023/05/09 04:16:40;;;;;;;8.68;5.82;;;;;;;;;;5114200;28;20043;-91
2023/05/09 04:19:06;;;;;;;8.65;5.45;;;;;;;;;;5115562;27;20047;-95
2023/05/09 04:21:32;;;;;;;9.80;5.78;;;;;;;;;;5115764;27;20020;-94
2023/05/09 04:24:00;;;;;;;14.60;5.53;;;;;;;;;;5098535;28;20471;-90
2023/05/09 04:26:27;;;;;;;10.43;5.90;;;;;;;;;;5102091;28;20028;-91
2023/05/09 04:28:53;;;;;;;9.02;5.47;;;;;;;;;;5116961;27;20027;-92
2023/05/09 04:31:19;;;;;;;6.93;5.30;;;;;;;;;;5113447;28;20028;-91
2023/05/09 04:33:46;;;;;;;6.13;4.80;;;;;;;;;;5113841;28;20076;-92
2023/05/09 04:36:12;;;;;;;6.68;4.80;;;;;;;;;;5115012;28;20037;-90
2023/05/09 04:38:38;;;;;;;7.00;4.88;;;;;;;;;;5114503;28;20031;-91
2023/05/09 04:41:04;;;;;;;8.63;5.25;;;;;;;;;;5110137;27;20023;-92
2023/05/09 04:43:31;;;;;;;6.82;5.18;;;;;;;;;;5117322;27;20148;-92
2023/05/09 04:45:57;;;;;;;6.93;4.53;;;;;;;;;;5117294;27;20087;-92
2023/05/09 04:48:23;;;;;;;10.48;4.82;;;;;;;;;;5117393;27;20058;-91
2023/05/09 04:50:49;;;;;;;6.18;4.57;;;;;;;;;;5107917;28;20023;-93
2023/05/09 04:56:12;;;;;;;4.60;3.72;;;;;;;;;;5113505;28;20042;-93
2023/05/09 04:58:39;;;;;;;5.97;3.90;;;;;;;;;;5095717;28;20051;-93
2023/05/09 05:01:05;;;;;;;6.28;3.65;;;;;;;;;;5096841;28;20020;-92
2023/05/09 05:03:32;;;;;;;5.38;3.90;;;;;;;;;;5096978;28;20188;-89
2023/05/09 05:08:49;;;;;;;6.43;3.88;;;;;;;;;;5098871;23;20098;-89
2023/05/09 05:11:16;;;;;;;7.50;3.85;;;;;;;;;;5055468;28;20036;-92
2023/05/09 05:13:43;;;;;;;6.60;3.83;;;;;;;;;;5054454;28;20021;-92
2023/05/09 05:16:09;;;;;;;6.32;4.30;;;;;;;;;;5052761;28;20087;-91
2023/05/09 05:18:35;;;;;;;5.22;3.65;;;;;;;;;;5054234;28;20453;-93
2023/05/09 05:21:01;;;;;;;6.93;3.85;;;;;;;;;;5056825;28;20074;-95
2023/05/09 05:23:28;;;;;;;7.00;3.85;;;;;;;;;;5057204;28;20032;-94
2023/05/09 05:25:54;;;;;;;6.05;4.60;;;;;;;;;;5055851;28;20024;-91
2023/05/09 05:28:20;;;;;;;5.75;3.88;;;;;;;;;;5055964;28;20051;-90
2023/05/09 05:31:15;;;;;;;5.50;4.00;;;;;;;;;;5056293;28;20078;-96
2023/05/09 05:33:41;;;;;;;5.97;4.18;;;;;;;;;;5053779;28;20048;-90
2023/05/09 05:36:07;;;;;;;6.50;3.60;;;;;;;;;;5056247;28;20085;-89
2023/05/09 05:38:37;;;;;;;6.55;3.90;;;;;;;;;;5055597;28;20039;-93
2023/05/09 05:41:11;;;;;;;5.85;4.28;;;;;;;;;;5056427;28;20052;-95
2023/05/09 05:43:38;;;;;;;8.13;4.95;;;;;;;;;;5070978;28;20024;-90
2023/05/09 05:46:04;;;;;;;6.75;4.90;;;;;;;;;;5055889;28;20036;-92
2023/05/09 05:48:31;;;;;;;6.75;4.35;;;;;;;;;;5056144;28;20389;-89
2023/05/09 05:50:57;;;;;;;9.00;4.90;;;;;;;;;;5055506;28;20161;-92
2023/05/09 05:53:23;;;;;;;7.10;4.30;;;;;;;;;;5055802;28;20025;-92
2023/05/09 05:55:49;;;;;;;5.65;4.00;;;;;;;;;;5054899;28;20036;-89
2023/05/09 05:58:15;;;;;;;6.00;4.60;;;;;;;;;;5052448;28;20051;-91
2023/05/09 06:00:47;;;;;;;6.75;4.53;;;;;;;;;;5054673;28;20089;-95
2023/05/09 06:03:14;;;;;;;9.00;4.43;;;;;;;;;;5057012;28;20028;-90
2023/05/09 06:05:42;;;;;;;5.40;4.43;;;;;;;;;;5057357;28;20025;-91
2023/05/09 06:08:17;;;;;;;5.60;4.10;;;;;;;;;;5052413;28;20412;-96
2023/05/09 06:10:43;;;;;;;7.55;4.10;;;;;;;;;;5049475;28;20029;-89
2023/05/09 06:13:10;;;;;;;4.60;3.60;;;;;;;;;;5052521;28;20025;-93
2023/05/09 06:15:37;;;;;;;7.03;4.18;;;;;;;;;;5051682;28;20054;-91
2023/05/09 06:18:07;;;;;;;5.13;3.80;;;;;;;;;;5046599;28;20131;-94
2023/05/09 06:20:34;;;;;;;6.60;3.75;;;;;;;;;;5049209;28;20496;-92
2023/05/09 06:23:11;;;;;;;4.80;3.70;;;;;;;;;;5021421;28;20029;-94
2023/05/09 06:25:40;;;;;;;8.13;4.32;;;;;;;;;;5041422;28;20060;-95
2023/05/09 06:28:06;;;;;;;7.15;4.30;;;;;;;;;;5040055;28;20021;-94
2023/05/09 06:36:51;;;;;;;5.30;3.75;;;;;;;;;;5078251;22;20058;-92
2023/05/09 06:39:17;;;;;;;6.18;3.70;;;;;;;;;;5033671;28;20044;-94
2023/05/09 06:41:44;;;;;;;6.10;3.72;;;;;;;;;;5056807;28;20033;-92
2023/05/09 06:44:10;;;;;;;6.10;3.83;;;;;;;;;;5039126;28;20477;-90
2023/05/09 06:46:36;;;;;;;6.10;3.55;;;;;;;;;;5038720;28;20036;-91
2023/05/09 06:49:03;;;;;;;5.88;4.13;;;;;;;;;;5039196;28;20482;-91
2023/05/09 06:51:29;;;;;;;5.18;4.07;;;;;;;;;;5039442;28;20116;-87
2023/05/09 06:53:55;;;;;;;5.43;4.18;;;;;;;;;;5049602;28;20013;-90
2023/05/09 06:56:34;;;;;;;5.43;4.20;;;;;;;;;;5049611;28;20033;-95
2023/05/09 06:59:02;;;;;;;5.32;3.70;;;;;;;;;;5034745;28;20098;-92
2023/05/09 07:01:28;;;;;;;5.70;3.90;;;;;;;;;;5046780;28;20116;-89
2023/05/09 07:03:59;;;;;;;5.38;3.85;;;;;;;;;;5041375;28;20060;-96
2023/05/09 07:06:25;;;;;;;5.80;3.72;;;;;;;;;;5043061;28;20074;-92
2023/05/09 07:08:54;;;;;;;5.13;3.70;;;;;;;;;;5040204;28;20474;-96
2023/05/09 07:16:38;;;;;;;7.20;4.00;;;;;;;;;;5476719;22;20045;-95
2023/05/09 07:19:06;;;;;;;5.45;4.28;;;;;;;;;;5163711;22;20049;-91
2023/05/09 07:24:02;;;;;;;5.68;4.07;;;;;;;;;;5035258;28;20449;-90
2023/05/09 07:29:19;;;;;;;6.18;4.35;;;;;;;;;;5069766;28;20048;-94
2023/05/09 07:31:45;;;;;;;10.60;4.45;;;;;;;;;;5074066;28;20048;-92
2023/05/09 07:34:29;;;;;;;6.10;4.60;;;;;;;;;;5076112;28;20028;-95
2023/05/09 07:36:57;;;;;;;8.20;5.00;;;;;;;;;;5074494;28;20055;-94
2023/05/09 07:39:23;;;;;;;6.75;4.65;;;;;;;;;;5074834;28;20049;-92
2023/05/09 07:41:49;;;;;;;6.35;4.53;;;;;;;;;;5077835;28;20470;-94
2023/05/09 07:44:16;;;;;;;5.53;4.50;;;;;;;;;;5057940;28;20020;-91
2023/05/09 07:46:50;;;;;;;5.20;4.07;;;;;;;;;;5059713;28;20031;-94
2023/05/09 07:49:16;;;;;;;8.80;5.00;;;;;;;;;;5057980;28;20431;-89
2023/05/09 07:51:42;;;;;;;5.70;4.82;;;;;;;;;;5057574;28;20064;-89
2023/05/09 07:54:09;;;;;;;7.00;4.65;;;;;;;;;;5058337;28;20484;-94
2023/05/09 07:56:35;;;;;;;7.78;4.82;;;;;;;;;;5041385;28;20033;-90
2023/05/09 07:59:02;;;;;;;6.40;4.97;;;;;;;;;;5057337;28;20041;-95
2023/05/09 08:01:28;;;;;;;6.82;5.28;;;;;;;;;;5057314;28;20024;-90
2023/05/09 08:03:54;;;;;;;9.88;4.22;;;;;;;;;;5057597;28;20457;-91
2023/05/09 08:06:20;;;;;;;6.45;4.88;;;;;;;;;;5056933;28;20027;-92
2023/05/09 08:08:46;;;;;;;6.28;4.63;;;;;;;;;;5056953;28;20526;-89
2023/05/09 08:11:26;;;;;;;6.53;5.43;;;;;;;;;;5055191;28;20028;-95
2023/05/09 08:13:52;;;;;;;6.43;5.75;;;;;;;;;;5054483;28;20033;-92
2023/05/09 08:16:19;;;;;;;6.88;5.68;;;;;;;;;;5058404;28;20052;-90
2023/05/09 08:18:51;;;;;;;5.70;5.20;;;;;;;;;;5057260;28;20037;-92
2023/05/09 08:21:17;;;;;;;6.25;5.10;;;;;;;;;;5057047;28;20020;-94
2023/05/09 08:23:43;;;;;;;9.10;4.97;;;;;;;;;;5057098;28;20032;-91
2023/05/09 08:26:09;;;;;;;6.53;4.85;;;;;;;;;;5059293;28;20039;-92
2023/05/09 08:28:42;;;;;;;7.00;4.40;;;;;;;;;;5090142;28;20095;-95
2023/05/09 08:31:09;;;;;;;4.35;3.95;;;;;;;;;;5077412;28;20161;-95
2023/05/09 08:33:36;;;;;;;5.00;4.40;;;;;;;;;;5079103;28;20020;-92
2023/05/09 08:36:02;;;;;;;7.28;4.43;;;;;;;;;;5077350;28;20030;-92
2023/05/09 08:38:28;;;;;;;6.35;4.57;;;;;;;;;;5081810;28;20035;-91
2023/05/09 08:41:10;;;;;;;6.38;4.60;;;;;;;;;;5059462;28;20090;-94
2023/05/09 08:43:37;;;;;;;6.47;4.47;;;;;;;;;;5054980;28;20079;-91
2023/05/09 08:46:07;;;;;;;5.38;4.03;;;;;;;;;;5055871;28;20024;-93
2023/05/09 08:48:36;;;;;;;5.28;3.70;;;;;;;;;;5056483;28;20119;-95
2023/05/09 08:51:06;;;;;;;5.53;4.20;;;;;;;;;;5059208;28;20028;-95
2023/05/09 08:53:35;;;;;;;4.95;3.65;;;;;;;;;;5056921;28;20507;-91
2023/05/09 08:56:03;;;;;;;5.28;3.50;;;;;;;;;;5056663;28;20084;-96
2023/05/09 08:58:35;;;;;;;4.47;3.20;;;;;;;;;;5057835;28;20074;-95
2023/05/09 09:01:05;;;;;;;3.97;3.10;;;;;;;;;;5056357;28;20081;-91
2023/05/09 09:03:32;;;;;;;4.22;2.92;;;;;;;;;;5056481;28;20124;-92
2023/05/09 09:05:58;;;;;;;5.72;3.13;;;;;;;;;;5056534;28;20035;-95
2023/05/09 09:08:43;;;;;;;4.95;3.20;;;;;;;;;;5057701;28;20159;-92
2023/05/09 09:11:14;;;;;;;4.78;3.42;;;;;;;;;;5050320;28;20044;-96
2023/05/09 09:13:41;;;;;;;3.70;2.80;;;;;;;;;;5061750;28;20158;-90
2023/05/09 09:16:12;;;;;;;4.15;2.88;;;;;;;;;;5058191;28;20029;-92
2023/05/09 09:18:38;;;;;;;3.90;2.88;;;;;;;;;;5037362;28;20045;-90
2023/05/09 09:21:12;;;;;;;4.20;2.70;;;;;;;;;;5043172;28;20060;-91
2023/05/09 09:23:38;;;;;;;;;;;;;;;;;;5057218;28;20078;-91
2023/05/09 09:26:04;;;;;;;3.30;2.92;;;;;;;;;;5056092;28;19904;-91
2023/05/09 09:28:30;;;;;;;4.95;2.70;;;;;;;;;;5052231;28;20049;-94
2023/05/09 09:30:56;;;;;;;6.03;2.55;;;;;;;;;;5052800;28;20112;-90
2023/05/09 09:33:26;;;;;;;4.75;2.95;;;;;;;;;;5052698;28;20096;-91
2023/05/09 09:35:53;;;;;;;5.70;2.72;;;;;;;;;;5055689;28;20473;-91
2023/05/09 09:38:20;;;;;;;3.95;3.30;;;;;;;;;;5055721;28;20041;-90
2023/05/09 09:40:49;;;;;;;4.07;3.03;;;;;;;;;;5055779;28;20024;-91
2023/05/09 09:43:15;;;;;;;3.92;3.20;;;;;;;;;;5056099;28;20024;-91
2023/05/09 09:45:41;;;;;;;3.75;3.05;;;;;;;;;;5055965;28;20021;-96
2023/05/09 09:48:07;;;;;;;3.50;2.42;;;;;;;;;;5039298;28;20119;-90
2023/05/09 09:50:33;;;;;;;3.60;2.50;;;;;;;;;;5073981;28;20027;-91
2023/05/09 09:53:00;;;;;;;5.18;3.10;;;;;;;;;;5072445;28;20472;-91
2023/05/09 09:55:26;;;;;;;4.65;2.65;;;;;;;;;;5056268;28;20048;-91
2023/05/09 09:57:52;;;;;;;5.68;2.58;;;;;;;;;;5057811;28;20036;-90
2023/05/09 10:00:23;;;;;;;3.55;2.58;;;;;;;;;;5059478;28;20027;-91
2023/05/09 10:02:50;;;;;;;4.93;3.40;;;;;;;;;;5059627;28;20024;-93
2023/05/09 10:05:22;;;;;;;4.68;2.97;;;;;;;;;;5059058;28;20021;-94
2023/05/09 10:07:59;;;;;;;3.60;2.85;;;;;;;;;;5059424;28;20024;-91
2023/05/09 10:10:41;;;;;;;4.10;2.92;;;;;;;;;;5059350;28;20025;-94
2023/05/09 10:13:08;;;;;;;6.15;2.90;;;;;;;;;;5059272;28;20042;-90
2023/05/09 10:15:36;;;;;;;5.78;3.10;;;;;;;;;;5059453;28;20025;-94
2023/05/09 10:18:03;;;;;;;4.90;2.88;;;;;;;;;;5073129;28;20040;-92
2023/05/09 10:20:29;;;;;;;5.90;3.20;;;;;;;;;;5081911;28;20049;-91
2023/05/09 10:22:56;;;;;;;6.35;3.40;;;;;;;;;;5088500;28;20188;-89
2023/05/09 10:25:39;;;;;;;6.07;3.10;;;;;;;;;;5061500;28;20033;-93
2023/05/09 10:28:10;;;;;;;4.82;3.20;;;;;;;;;;5058640;28;20045;-90
2023/05/09 10:30:40;;;;;;;5.00;3.15;;;;;;;;;;5058972;28;20422;-90
2023/05/09 10:33:11;;;;;;;3.63;3.08;;;;;;;;;;5058961;28;20021;-90
2023/05/09 10:35:44;;;;;;;4.50;3.03;;;;;;;;;;5058848;28;20021;-90
2023/05/09 10:38:11;;;;;;;5.50;3.15;;;;;;;;;;5058526;28;20040;-91
2023/05/09 10:40:40;;;;;;;4.93;2.90;;;;;;;;;;5058618;28;20028;-92
2023/05/09 10:43:07;;;;;;;3.95;2.72;;;;;;;;;;5059244;28;20025;-91
2023/05/09 10:45:35;;;;;;;5.10;2.80;;;;;;;;;;5059579;28;20020;-90
2023/05/09 10:48:03;;;;;;;5.03;2.95;;;;;;;;;;5061775;28;20088;-89
2023/05/09 10:50:30;;;;;;;6.78;3.10;;;;;;;;;;5088427;28;20016;-89
2023/05/09 10:53:10;;;;;;;4.38;3.10;;;;;;;;;;5078481;28;20043;-91
2023/05/09 10:55:57;;;;;;;5.15;2.85;;;;;;;;;;5078588;28;20022;-95
2023/05/09 10:58:29;;;;;;;5.00;3.13;;;;;;;;;;5087421;28;20404;-91
2023/05/09 11:00:59;;;;;;;4.75;2.97;;;;;;;;;;5055001;28;20060;-95
2023/05/09 11:06:53;;;;;;;4.75;2.75;;;;;;;;;;5061572;28;20091;-90
2023/05/09 11:09:33;;;;;;;5.05;2.60;;;;;;;;;;5056114;28;20425;-94
2023/05/09 11:12:05;;;;;;;3.70;2.70;;;;;;;;;;5056487;28;20048;-90
2023/05/09 11:14:37;;;;;;;3.45;2.13;;;;;;;;;;5056541;28;20033;-91
2023/05/09 11:17:05;;;;;;;5.57;2.40;;;;;;;;;;5057968;28;20029;-90
2023/05/09 11:19:37;;;;;;;3.28;2.40;;;;;;;;;;5074669;28;20068;-92
2023/05/09 11:22:14;;;;;;;4.93;2.70;;;;;;;;;;5071404;28;20381;-94
2023/05/09 11:24:44;;;;;;;3.35;2.20;;;;;;;;;;5064263;28;20031;-90
2023/05/09 11:27:18;;;;;;;4.40;2.90;;;;;;;;;;5058866;28;20025;-91
2023/05/09 11:29:55;;;;;;;5.53;2.60;;;;;;;;;;5037685;28;20123;-91
2023/05/09 11:32:26;;;;;;;3.25;2.65;;;;;;;;;;5038008;28;20032;-91
2023/05/09 11:35:05;;;;;;;4.05;2.72;;;;;;;;;;5034181;28;20037;-94
2023/05/09 11:37:31;;;;;;;3.72;3.00;;;;;;;;;;5037675;28;20079;-91
2023/05/09 11:39:58;;;;;;;3.35;2.70;;;;;;;;;;5039083;28;20029;-91
2023/05/09 11:42:27;;;;;;;4.70;3.20;;;;;;;;;;5043636;28;20067;-88
2023/05/09 11:44:53;;;;;;;5.45;3.00;;;;;;;;;;5055714;28;20060;-90
2023/05/09 11:47:22;;;;;;;4.03;2.65;;;;;;;;;;5038256;28;20393;-94
2023/05/09 11:49:48;;;;;;;6.18;2.80;;;;;;;;;;5038782;28;20036;-93
2023/05/09 11:52:15;;;;;;;3.58;2.28;;;;;;;;;;5037954;28;20139;-93
2023/05/09 11:54:42;;;;;;;3.28;2.25;;;;;;;;;;5037738;28;20589;-90
2023/05/09 11:57:16;;;;;;;4.38;2.40;;;;;;;;;;5039967;28;20013;-94
2023/05/09 12:03:05;;;;;;;4.30;2.55;;;;;;;;;;5134070;22;20052;-93
2023/05/09 12:05:38;;;;;;;4.68;2.45;;;;;;;;;;5123653;22;20143;-89
2023/05/09 12:08:05;;;;;;;4.32;2.85;;;;;;;;;;5065282;28;20092;-89
2023/05/09 12:10:31;;;;;;;3.50;2.88;;;;;;;;;;5070643;28;20124;-87
2023/05/09 12:13:31;;;;;;;5.38;3.50;;;;;;;;;;5066588;28;20028;-89
2023/05/09 12:16:01;;;;;;;4.45;2.40;;;;;;;;;;5057298;28;20028;-91
2023/05/09 12:18:30;;;;;;;4.43;2.78;;;;;;;;;;5064950;28;20040;-93
2023/05/09 12:20:56;;;;;;;4.78;2.70;;;;;;;;;;5058940;28;20025;-90
2023/05/09 12:23:26;;;;;;;6.78;2.55;;;;;;;;;;5058772;28;20122;-92
2023/05/09 12:25:56;;;;;;;4.53;2.47;;;;;;;;;;5062330;28;20036;-91
2023/05/09 12:28:50;;;;;;;12.75;2.58;;;;;;;;;;5064616;28;20106;-94
2023/05/09 12:31:17;;;;;;;2.95;2.10;;;;;;;;;;5043668;28;20064;-93
2023/05/09 12:33:43;;;;;;;3.58;2.30;;;;;;;;;;5057457;28;20048;-90
2023/05/09 12:36:14;;;;;;;3.15;1.98;;;;;;;;;;5058151;28;20021;-94
2023/05/09 12:38:41;;;;;;;2.70;1.88;;;;;;;;;;5057350;28;20036;-92
2023/05/09 12:41:08;;;;;;;5.97;2.95;;;;;;;;;;5058792;28;20036;-90
2023/05/09 12:43:36;;;;;;;8.55;3.08;;;;;;;;;;5075943;28;20028;-90
2023/05/09 12:46:03;;;;;;;7.20;2.65;;;;;;;;;;5058610;28;20101;-90
2023/05/09 12:48:33;;;;;;;3.53;1.95;;;;;;;;;;5058188;28;20021;-91
2023/05/09 12:51:05;;;;;;;3.60;1.63;;;;;;;;;;5058769;28;20027;-91
2023/05/09 12:53:43;;;;;;;5.13;2.17;;;;;;;;;;5057486;28;20124;-89
2023/05/09 12:56:19;;;;;;;15.27;3.42;;;;;;;;;;5056923;28;20028;-94
2023/05/09 12:58:52;;;;;;;10.77;3.22;;;;;;;;;;5057067;28;20552;-91
2023/05/09 13:01:48;;;;;;;8.93;2.00;;;;;;;;;;5059065;28;20034;-95
2023/05/09 13:04:14;;;;;;;3.85;1.70;;;;;;;;;;5053623;28;20032;-91
2023/05/09 13:07:01;;;;;;;4.57;2.15;;;;;;;;;;5057899;28;20551;-90
2023/05/09 13:09:32;;;;;;;4.43;1.75;;;;;;;;;;5074043;28;20113;-93
2023/05/09 13:12:02;;;;;;;2.80;1.60;;;;;;;;;;5074494;28;20040;-93
2023/05/09 13:14:38;;;;;;;7.07;1.90;;;;;;;;;;5078474;28;20052;-96
2023/05/09 13:17:04;;;;;;;3.80;1.75;;;;;;;;;;5056963;28;20029;-91
2023/05/09 13:19:38;;;;;;;3.15;2.30;;;;;;;;;;5073827;28;20036;-92
2023/05/09 13:22:04;;;;;;;4.05;1.90;;;;;;;;;;5073315;28;20029;-92
2023/05/09 13:34:54;;;;;;;2.65;1.83;;;;;;;;;;5036937;28;20057;-89
2023/05/09 13:39:56;;;;;;;3.60;1.60;;;;;;;;;;5299661;22;20167;-95
2023/05/09 13:42:22;;;;;;;3.25;1.60;;;;;;;;;;5040252;28;20342;-91
2023/05/09 13:44:48;;;;;;;2.78;1.70;;;;;;;;;;5045286;28;20028;-90
2023/05/09 13:47:14;;;;;;;5.28;2.08;;;;;;;;;;5058467;28;20075;-89
2023/05/09 13:49:40;;;;;;;3.22;1.55;;;;;;;;;;5047609;28;20049;-89
2023/05/09 13:52:07;;;;;;;5.43;2.00;;;;;;;;;;5048072;28;20036;-93
2023/05/09 13:54:34;;;;;;;6.85;2.08;;;;;;;;;;5039276;28;20592;-90
2023/05/09 13:57:03;;;;;;;3.13;1.77;;;;;;;;;;5039724;28;20029;-89
2023/05/09 13:59:30;;;;;;;7.70;1.83;;;;;;;;;;5039445;28;20057;-90
2023/05/09 14:02:15;;;;;;;33.50;4.20;;;;;;;;;;5040587;28;20219;-89
2023/05/09 14:04:44;;;;;;;4.72;1.80;;;;;;;;;;5049486;28;20013;-93
2023/05/09 14:07:12;;;;;;;5.82;2.25;;;;;;;;;;5056785;28;20060;-94
2023/05/09 14:09:41;;;;;;;3.13;1.58;;;;;;;;;;5043935;28;20123;-96
2023/05/09 14:12:08;;;;;;;4.57;1.73;;;;;;;;;;5044522;28;20009;-92
2023/05/09 14:14:34;;;;;;;4.88;1.73;;;;;;;;;;5042823;28;20470;-93
2023/05/09 15:31:56;;;;;;;4.22;1.92;;;;;;;;;;4942053;29;20035;-93
2023/05/09 15:34:24;;;;;;;2.35;1.48;;;;;;;;;;4930632;29;20055;-94
2023/05/09 15:39:58;;;;;;;7.35;1.38;;;;;;;;;;4915651;29;20082;-93
2023/05/09 15:42:39;;;;;;;5.05;1.50;;;;;;;;;;4905191;29;20035;-94
2023/05/09 15:45:14;;;;;;;2.88;1.30;;;;;;;;;;4903516;29;20028;-95
2023/05/09 15:47:43;;;;;;;3.22;1.60;;;;;;;;;;4902679;29;20028;-95
2023/05/09 16:16:59;;;;;;;4.35;1.63;;;;;;;;;;3140144;23;20313;-95
2023/05/09 16:23:04;;;;;;;4.10;1.60;;;;;;;;;;4978363;28;20029;-96
2023/05/09 16:26:08;;;;;;;2.92;1.73;;;;;;;;;;4943673;29;20043;-91
2023/05/09 16:34:15;;;;;;;2.53;1.35;;;;;;;;;;5608772;23;20144;-89
2023/05/09 16:36:45;;;;;;;3.75;1.80;;;;;;;;;;4941344;29;20036;-89
2023/05/09 16:39:11;;;;;;;3.95;1.70;;;;;;;;;;4920443;29;20031;-91
2023/05/09 16:41:37;;;;;;;3.20;1.50;;;;;;;;;;4920237;29;20038;-92
2023/05/09 16:44:06;;;;;;;3.72;1.65;;;;;;;;;;4920866;29;20035;-89
2023/05/09 16:46:35;;;;;;;4.00;1.40;;;;;;;;;;4921548;29;20032;-90
2023/05/09 16:49:01;;;;;;;1.88;1.20;;;;;;;;;;4919933;29;20059;-92
2023/05/09 16:51:34;;;;;;;3.30;1.20;;;;;;;;;;4920383;29;20027;-90
2023/05/09 16:54:06;;;;;;;3.20;1.35;;;;;;;;;;4940220;29;20027;-92
2023/05/09 16:59:38;;;;;;;3.63;1.38;;;;;;;;;;4916615;29;20126;-94
2023/05/09 17:02:10;;;;;;;3.85;1.40;;;;;;;;;;4919808;29;20062;-94
2023/05/09 17:04:40;;;;;;;2.67;1.40;;;;;;;;;;4922100;29;20058;-94
2023/05/09 17:07:22;;;;;;;3.70;1.17;;;;;;;;;;4948389;29;20298;-93
2023/05/09 17:12:38;;;;;;;2.63;1.50;;;;;;;;;;4957412;29;20035;-93
2023/05/09 17:15:51;;;;;;;3.28;1.70;;;;;;;;;;4924815;29;20090;-95
2023/05/09 17:18:21;;;;;;;7.85;3.33;;;;;;;;;;4944362;29;20067;-95
2023/05/09 17:20:50;;;;;;;5.20;2.30;;;;;;;;;;5111845;23;20059;-95
2023/05/09 17:23:18;;;;;;;6.18;2.00;;;;;;;;;;4939545;29;20039;-95
2023/05/09 17:25:47;;;;;;;4.05;1.98;;;;;;;;;;4937292;29;20032;-94
2023/05/09 17:31:06;;;;;;;3.17;1.25;;;;;;;;;;4936017;29;20035;-96
2023/05/09 17:33:32;;;;;;;3.40;1.17;;;;;;;;;;4960827;29;20031;-95
2023/05/09 17:35:59;;;;;;;3.15;1.10;;;;;;;;;;5000042;23;20031;-93
2023/05/09 17:38:25;;;;;;;2.78;1.30;;;;;;;;;;5261379;23;20051;-93
2023/05/09 17:47:15;;;;;;;3.67;1.73;;;;;;;;;;5433076;23;20060;-96